createdAt,value
2022-09-28T00:01:33.094Z,12.38
2022-09-28T00:04:34.910Z,12.31
2022-09-28T00:07:50.042Z,12.27
2022-09-28T00:11:05.064Z,12.24
2022-09-28T00:14:14.052Z,12.19
2022-09-28T00:17:29.097Z,12.22
2022-09-28T00:20:37.654Z,12.21
2022-09-28T00:23:48.151Z,12.20
2022-09-28T00:26:58.051Z,12.13
2022-09-28T00:30:06.052Z,12.18
2022-09-28T00:33:21.073Z,12.22
2022-09-28T00:36:31.251Z,12.16
2022-09-28T00:39:39.088Z,12.16
2022-09-28T00:43:01.107Z,12.19
2022-09-28T00:46:25.055Z,12.23
2022-09-28T00:49:33.769Z,12.17
2022-09-28T00:53:12.128Z,12.24
2022-09-28T00:56:25.380Z,12.24
2022-09-28T00:59:34.083Z,12.20
2022-09-28T01:02:44.587Z,12.17
2022-09-28T01:05:55.093Z,12.09
2022-09-28T01:09:14.204Z,12.12
2022-09-28T01:12:22.704Z,12.09
2022-09-28T01:15:33.123Z,12.08
2022-09-28T01:19:01.711Z,12.07
2022-09-28T01:22:35.092Z,12.12
2022-09-28T01:25:56.872Z,12.11
2022-09-28T01:29:22.092Z,12.09
2022-09-28T01:32:56.367Z,12.14
2022-09-28T01:36:22.139Z,12.14
2022-09-28T01:39:43.113Z,12.10
2022-09-28T01:42:55.119Z,12.14
2022-09-28T01:46:23.117Z,12.11
2022-09-28T01:49:51.135Z,12.06
2022-09-28T01:53:15.100Z,12.02
2022-09-28T01:56:39.170Z,11.99
2022-09-28T01:59:57.600Z,12.00
2022-09-28T02:03:15.136Z,12.02
2022-09-28T02:06:38.122Z,12.02
2022-09-28T02:09:53.574Z,12.02
2022-09-28T02:13:09.170Z,12.00
2022-09-28T02:16:39.260Z,12.00
2022-09-28T02:19:48.109Z,12.01
2022-09-28T02:23:06.127Z,12.02
2022-09-28T02:26:25.122Z,12.02
2022-09-28T02:29:26.898Z,12.07
2022-09-28T02:32:45.120Z,12.05
2022-09-28T02:36:00.139Z,12.05
2022-09-28T02:39:02.402Z,12.04
2022-09-28T02:42:27.143Z,12.00
2022-09-28T02:45:45.638Z,12.00
2022-09-28T02:49:22.235Z,12.00
2022-09-28T02:52:55.127Z,11.87
2022-09-28T02:56:20.135Z,12.06
2022-09-28T02:59:46.804Z,12.00
2022-09-28T03:03:16.186Z,11.98
2022-09-28T03:06:40.140Z,12.01
2022-09-28T03:09:59.507Z,12.01
2022-09-28T03:13:09.152Z,12.07
2022-09-28T03:16:26.253Z,12.09
2022-09-28T03:19:35.060Z,12.00
2022-09-28T03:22:43.255Z,11.96
2022-09-28T03:25:51.947Z,11.97
2022-09-28T03:29:07.159Z,12.02
2022-09-28T03:32:08.951Z,12.08
2022-09-28T03:35:24.186Z,12.12
2022-09-28T03:38:32.157Z,12.14
2022-09-28T03:41:47.177Z,12.16
2022-09-28T03:44:55.755Z,12.19
2022-09-28T03:48:04.188Z,12.19
2022-09-28T03:51:19.424Z,12.17
2022-09-28T03:54:34.150Z,12.22
2022-09-28T03:57:35.946Z,12.19
2022-09-28T04:00:50.311Z,12.20
2022-09-28T04:04:01.167Z,12.27
2022-09-28T04:07:16.206Z,12.24
2022-09-28T04:10:26.029Z,12.26
2022-09-28T04:13:36.220Z,12.31
2022-09-28T04:16:51.251Z,12.20
2022-09-28T04:20:06.187Z,12.08
2022-09-28T04:23:08.308Z,12.04
2022-09-28T04:26:26.206Z,12.07
2022-09-28T04:29:34.214Z,12.02
2022-09-28T04:32:42.984Z,12.02
2022-09-28T04:35:57.184Z,11.98
2022-09-28T04:38:59.368Z,11.97
2022-09-28T04:42:17.224Z,11.93
2022-09-28T04:45:25.278Z,11.94
2022-09-28T04:48:40.214Z,11.88
2022-09-28T04:51:55.488Z,11.77
2022-09-28T04:55:04.187Z,11.84
2022-09-28T04:58:19.235Z,11.90
2022-09-28T05:01:34.320Z,11.83
2022-09-28T05:04:36.120Z,11.74
2022-09-28T05:07:51.195Z,11.70
2022-09-28T05:11:02.023Z,11.70
2022-09-28T05:14:10.200Z,11.66
2022-09-28T05:17:18.758Z,11.63
2022-09-28T05:20:27.207Z,11.58
2022-09-28T05:23:42.212Z,11.60
2022-09-28T05:26:57.255Z,11.65
2022-09-28T05:29:59.009Z,11.63
2022-09-28T05:33:15.215Z,11.63
2022-09-28T05:36:30.279Z,11.71
2022-09-28T05:39:38.231Z,11.75
2022-09-28T05:42:46.941Z,11.83
2022-09-28T05:45:55.918Z,11.83
2022-09-28T05:49:04.923Z,11.91
2022-09-28T05:52:27.232Z,12.00
2022-09-28T05:55:29.101Z,11.99
2022-09-28T05:58:44.256Z,12.04
2022-09-28T06:01:52.867Z,12.07
2022-09-28T06:05:01.281Z,12.10
2022-09-28T06:08:10.481Z,12.17
2022-09-28T06:11:25.451Z,12.21
2022-09-28T06:14:34.648Z,12.18
2022-09-28T06:17:49.311Z,12.20
2022-09-28T06:20:51.275Z,12.38
2022-09-28T06:24:06.266Z,12.37
2022-09-28T06:27:21.285Z,12.56
2022-09-28T06:30:23.853Z,12.68
2022-09-28T06:33:38.300Z,12.59
2022-09-28T06:36:53.306Z,12.68
2022-09-28T06:39:55.424Z,12.76
2022-09-28T06:43:18.371Z,12.80
2022-09-28T06:46:26.975Z,12.91
2022-09-28T06:49:36.304Z,13.04
2022-09-28T06:52:44.964Z,13.12
2022-09-28T06:55:54.355Z,13.15
2022-09-28T06:59:03.830Z,13.11
2022-09-28T07:02:19.312Z,13.07
2022-09-28T07:05:21.178Z,13.19
2022-09-28T07:08:41.315Z,13.30
2022-09-28T07:11:49.367Z,13.34
2022-09-28T07:14:57.983Z,13.29
2022-09-28T07:18:14.356Z,13.37
2022-09-28T07:21:28.168Z,13.47
2022-09-28T07:24:44.284Z,13.57
2022-09-28T07:27:52.348Z,13.64
2022-09-28T07:31:00.963Z,13.67
2022-09-28T07:34:09.337Z,13.84
2022-09-28T07:37:17.911Z,13.89
2022-09-28T07:40:26.337Z,14.00
2022-09-28T07:43:41.349Z,14.09
2022-09-28T07:46:43.142Z,14.15
2022-09-28T07:50:05.331Z,14.31
2022-09-28T07:53:14.017Z,14.34
2022-09-28T07:56:25.336Z,14.42
2022-09-28T07:59:40.602Z,14.52
2022-09-28T08:02:42.775Z,14.56
2022-09-28T08:05:57.442Z,14.49
2022-09-28T08:09:06.310Z,14.60
2022-09-28T08:12:15.357Z,14.85
2022-09-28T08:15:30.377Z,15.47
2022-09-28T08:18:38.970Z,15.81
2022-09-28T08:21:47.333Z,16.02
2022-09-28T08:24:55.883Z,16.19
2022-09-28T08:28:04.319Z,15.91
2022-09-28T08:31:13.283Z,15.68
2022-09-28T08:34:28.354Z,16.42
2022-09-28T08:37:30.392Z,16.11
2022-09-28T08:41:03.494Z,15.96
2022-09-28T08:44:18.140Z,16.16
2022-09-28T08:47:31.539Z,16.58
2022-09-28T08:51:02.357Z,16.33
2022-09-28T08:54:17.798Z,16.44
2022-09-28T08:57:40.424Z,16.29
2022-09-28T09:00:51.610Z,16.35
2022-09-28T09:04:00.360Z,16.57
2022-09-28T09:07:26.258Z,16.44
2022-09-28T09:10:56.367Z,16.39
2022-09-28T09:14:34.459Z,16.48
2022-09-28T09:18:19.834Z,16.57
2022-09-28T09:21:47.401Z,16.55
2022-09-28T09:25:25.352Z,16.56
2022-09-28T09:29:14.186Z,16.81
2022-09-28T09:32:43.392Z,16.49
2022-09-28T09:36:17.331Z,16.78
2022-09-28T09:39:52.655Z,16.50
2022-09-28T09:43:27.985Z,16.75
2022-09-28T09:46:53.376Z,16.88
2022-09-28T09:50:23.327Z,16.69
2022-09-28T09:53:46.385Z,17.11
2022-09-28T09:57:10.589Z,16.83
2022-09-28T10:00:26.447Z,17.15
2022-09-28T10:03:37.405Z,17.52
2022-09-28T10:06:48.076Z,17.93
2022-09-28T10:09:57.436Z,18.38
2022-09-28T10:13:06.107Z,17.89
2022-09-28T10:16:22.495Z,17.10
2022-09-28T10:19:41.448Z,17.14
2022-09-28T10:22:52.083Z,16.72
2022-09-28T10:26:13.397Z,17.01
2022-09-28T10:29:20.204Z,17.29
2022-09-28T10:32:48.507Z,17.33
2022-09-28T10:35:57.399Z,17.25
2022-09-28T10:39:06.354Z,17.82
2022-09-28T10:42:29.480Z,17.53
2022-09-28T10:45:43.438Z,17.93
2022-09-28T10:49:08.379Z,17.78
2022-09-28T10:52:42.454Z,17.59
2022-09-28T10:55:57.637Z,17.59
2022-09-28T10:59:32.604Z,17.86
2022-09-28T11:02:47.479Z,17.75
2022-09-28T11:05:54.987Z,17.64
2022-09-28T11:09:14.434Z,17.27
2022-09-28T11:12:20.564Z,17.07
2022-09-28T11:15:41.572Z,17.25
2022-09-28T11:18:56.435Z,17.30
2022-09-28T11:21:58.440Z,17.66
2022-09-28T11:25:30.501Z,18.55
2022-09-28T11:28:36.453Z,18.55
2022-09-28T11:31:53.439Z,18.99
2022-09-28T11:35:03.941Z,25.31
2022-09-28T11:38:34.462Z,23.81
2022-09-28T11:42:04.536Z,25.45
2022-09-28T11:45:32.280Z,26.71
2022-09-28T11:48:51.074Z,24.85
2022-09-28T11:52:39.804Z,24.90
2022-09-28T11:55:57.279Z,20.78
2022-09-28T11:59:12.791Z,19.01
2022-09-28T12:02:55.684Z,22.75
2022-09-28T12:06:16.110Z,21.85
2022-09-28T12:09:44.508Z,24.27
2022-09-28T12:13:01.378Z,21.19
2022-09-28T12:17:03.637Z,23.46
2022-09-28T12:20:30.451Z,22.52
2022-09-28T12:23:43.436Z,26.69
2022-09-28T12:27:01.703Z,26.42
2022-09-28T12:30:23.441Z,27.89
2022-09-28T12:33:32.692Z,25.34
2022-09-28T12:37:01.557Z,26.59
2022-09-28T12:40:36.567Z,25.19
2022-09-28T12:44:05.055Z,21.29
2022-09-28T12:47:38.459Z,19.90
2022-09-28T12:51:25.630Z,19.03
2022-09-28T12:54:52.694Z,18.87
2022-09-28T12:58:28.493Z,18.60
2022-09-28T13:02:04.598Z,18.50
2022-09-28T13:05:27.440Z,18.22
2022-09-28T13:08:59.735Z,18.27
2022-09-28T13:12:25.512Z,18.48
2022-09-28T13:15:43.788Z,18.50
2022-09-28T13:19:17.608Z,18.44
2022-09-28T13:22:46.508Z,18.20
2022-09-28T13:26:15.060Z,17.89
2022-09-28T13:29:25.476Z,17.83
2022-09-28T13:32:36.993Z,17.86
2022-09-28T13:35:49.485Z,17.96
2022-09-28T13:38:59.820Z,18.07
2022-09-28T13:42:16.479Z,18.14
2022-09-28T13:45:48.524Z,18.08
2022-09-28T13:49:22.523Z,17.94
2022-09-28T13:52:51.063Z,17.92
2022-09-28T13:56:10.520Z,17.69
2022-09-28T13:59:32.612Z,17.54
2022-09-28T14:02:42.203Z,17.55
2022-09-28T14:06:27.537Z,17.58
2022-09-28T14:09:52.830Z,17.72
2022-09-28T14:12:54.635Z,17.55
2022-09-28T14:16:28.608Z,17.58
2022-09-28T14:19:34.010Z,17.75
2022-09-28T14:23:08.540Z,17.82
2022-09-28T14:26:53.559Z,17.91
2022-09-28T14:30:23.535Z,17.88
2022-09-28T14:33:39.547Z,17.95
2022-09-28T14:36:47.865Z,17.86
2022-09-28T14:40:02.548Z,17.83
2022-09-28T14:43:31.546Z,18.01
2022-09-28T14:46:43.621Z,17.83
2022-09-28T14:50:11.399Z,17.56
2022-09-28T14:53:31.539Z,17.50
2022-09-28T14:56:55.538Z,17.32
2022-09-28T15:00:15.008Z,17.44
2022-09-28T15:03:23.559Z,17.33
2022-09-28T15:06:53.631Z,17.42
2022-09-28T15:10:02.193Z,17.33
2022-09-28T15:13:22.562Z,17.18
2022-09-28T15:16:38.556Z,17.25
2022-09-28T15:19:57.163Z,17.08
2022-09-28T15:23:11.560Z,17.00
2022-09-28T15:26:24.963Z,17.02
2022-09-28T15:29:39.564Z,17.04
2022-09-28T15:32:55.642Z,16.94
2022-09-28T15:36:05.516Z,16.79
2022-09-28T15:39:27.572Z,16.75
2022-09-28T15:42:42.588Z,16.73
2022-09-28T15:45:58.397Z,16.70
2022-09-28T15:49:28.595Z,16.70
2022-09-28T15:52:52.563Z,16.67
2022-09-28T15:56:10.566Z,16.62
2022-09-28T15:59:27.399Z,16.57
2022-09-28T16:02:42.749Z,16.52
2022-09-28T16:06:02.574Z,16.50
2022-09-28T16:09:31.343Z,16.49
2022-09-28T16:12:51.592Z,16.43
2022-09-28T16:16:03.648Z,16.41
2022-09-28T16:19:23.994Z,16.39
2022-09-28T16:22:38.563Z,16.37
2022-09-28T16:25:50.058Z,16.30
2022-09-28T16:29:05.600Z,16.29
2022-09-28T16:32:34.594Z,16.27
2022-09-28T16:35:52.030Z,16.24
2022-09-28T16:39:06.582Z,16.24
2022-09-28T16:42:08.638Z,16.27
2022-09-28T16:45:26.571Z,16.29
2022-09-28T16:48:32.115Z,16.27
2022-09-28T16:51:46.755Z,16.25
2022-09-28T16:55:04.940Z,16.25
2022-09-28T16:58:12.227Z,16.24
2022-09-28T17:01:27.683Z,16.19
2022-09-28T17:04:37.624Z,16.13
2022-09-28T17:07:46.637Z,16.13
2022-09-28T17:11:16.868Z,16.14
2022-09-28T17:14:33.610Z,16.12
2022-09-28T17:17:35.452Z,16.01
2022-09-28T17:20:55.640Z,16.00
2022-09-28T17:23:57.524Z,15.94
2022-09-28T17:27:12.627Z,15.88
2022-09-28T17:30:25.101Z,15.82
2022-09-28T17:33:40.623Z,15.82
2022-09-28T17:36:43.961Z,15.82
2022-09-28T17:39:58.674Z,15.82
2022-09-28T17:43:00.543Z,15.77
2022-09-28T17:46:36.752Z,15.72
2022-09-28T17:49:51.613Z,15.64
2022-09-28T17:53:07.621Z,15.60
2022-09-28T17:56:16.525Z,15.56
2022-09-28T17:59:31.696Z,15.54
2022-09-28T18:02:33.616Z,15.47
2022-09-28T18:05:53.599Z,15.37
2022-09-28T18:09:09.673Z,15.34
2022-09-28T18:12:17.612Z,15.20
2022-09-28T18:15:26.216Z,15.22
2022-09-28T18:18:34.636Z,15.12
2022-09-28T18:21:49.667Z,15.09
2022-09-28T18:25:04.683Z,15.03
2022-09-28T18:28:13.653Z,15.04
2022-09-28T18:31:22.511Z,14.93
2022-09-28T18:34:37.665Z,14.87
2022-09-28T18:37:40.027Z,14.70
2022-09-28T18:40:54.738Z,14.79
2022-09-28T18:44:02.644Z,14.77
2022-09-28T18:47:20.855Z,14.77
2022-09-28T18:50:42.668Z,14.76
2022-09-28T18:53:57.665Z,14.70
2022-09-28T18:57:06.392Z,14.64
2022-09-28T19:00:21.665Z,14.63
2022-09-28T19:03:29.659Z,14.63
2022-09-28T19:06:47.695Z,14.62
2022-09-28T19:10:02.669Z,14.57
2022-09-28T19:13:04.474Z,14.54
2022-09-28T19:16:25.653Z,14.58
2022-09-28T19:19:33.675Z,14.54
2022-09-28T19:22:48.667Z,14.48
2022-09-28T19:25:57.279Z,14.43
2022-09-28T19:29:05.689Z,14.32
2022-09-28T19:32:20.679Z,14.26
2022-09-28T19:35:35.690Z,14.24
2022-09-28T19:38:39.193Z,14.29
2022-09-28T19:41:53.683Z,14.26
2022-09-28T19:44:55.655Z,14.25
2022-09-28T19:48:11.703Z,14.26
2022-09-28T19:51:26.980Z,14.30
2022-09-28T19:54:36.675Z,14.23
2022-09-28T19:57:51.688Z,14.25
2022-09-28T20:01:00.361Z,14.16
2022-09-28T20:04:08.735Z,14.09
2022-09-28T20:07:23.710Z,13.93
2022-09-28T20:10:25.479Z,13.94
2022-09-28T20:13:42.708Z,13.97
2022-09-28T20:16:57.716Z,14.00
2022-09-28T20:19:59.483Z,14.03
2022-09-28T20:23:14.743Z,14.07
2022-09-28T20:26:23.941Z,14.03
2022-09-28T20:29:31.906Z,14.06
2022-09-28T20:32:40.243Z,14.03
2022-09-28T20:35:48.716Z,13.96
2022-09-28T20:39:04.718Z,13.83
2022-09-28T20:42:19.708Z,13.80
2022-09-28T20:45:27.746Z,13.79
2022-09-28T20:48:37.266Z,13.85
2022-09-28T20:51:51.743Z,13.92
2022-09-28T20:54:53.438Z,13.89
2022-09-28T20:58:09.729Z,13.87
2022-09-28T21:01:24.828Z,13.88
2022-09-28T21:04:39.748Z,13.88
2022-09-28T21:07:48.298Z,13.88
2022-09-28T21:10:57.812Z,13.89
2022-09-28T21:14:13.740Z,13.94
2022-09-28T21:17:28.772Z,13.96
2022-09-28T21:20:37.760Z,14.00
2022-09-28T21:23:46.938Z,13.95
2022-09-28T21:27:01.728Z,13.99
2022-09-28T21:30:03.807Z,13.93
2022-09-28T21:33:18.727Z,13.95
2022-09-28T21:36:20.491Z,13.93
2022-09-28T21:39:34.712Z,13.97
2022-09-28T21:42:49.788Z,14.01
2022-09-28T21:45:59.827Z,13.96
2022-09-28T21:49:09.949Z,13.89
2022-09-28T21:52:24.783Z,13.92
2022-09-28T21:55:26.567Z,13.89
2022-09-28T21:58:42.762Z,13.86
2022-09-28T22:01:50.810Z,13.86
2022-09-28T22:05:05.768Z,13.88
2022-09-28T22:08:14.639Z,13.96
2022-09-28T22:11:26.780Z,13.93
2022-09-28T22:14:41.815Z,13.94
2022-09-28T22:17:50.395Z,13.95
2022-09-28T22:21:08.780Z,13.99
2022-09-28T22:24:23.757Z,14.02
2022-09-28T22:27:38.790Z,14.06
2022-09-28T22:30:40.600Z,13.98
2022-09-28T22:33:55.788Z,14.01
2022-09-28T22:37:04.850Z,13.99
2022-09-28T22:40:19.814Z,13.98
2022-09-28T22:43:28.388Z,13.98
2022-09-28T22:46:36.822Z,13.98
2022-09-28T22:49:45.315Z,13.98
2022-09-28T22:53:07.791Z,14.01
2022-09-28T22:56:12.531Z,14.00
2022-09-28T22:59:29.828Z,14.02
2022-09-28T23:02:38.394Z,14.02
2022-09-28T23:05:46.840Z,14.01
2022-09-28T23:09:01.781Z,14.03
2022-09-28T23:12:09.803Z,14.03
2022-09-28T23:15:18.381Z,14.04
2022-09-28T23:18:35.792Z,14.07
2022-09-28T23:21:37.790Z,14.08
2022-09-28T23:24:52.803Z,14.04
2022-09-28T23:28:01.548Z,14.06
2022-09-28T23:31:19.866Z,14.00
2022-09-28T23:34:28.493Z,13.96
2022-09-28T23:37:36.843Z,13.99
2022-09-28T23:40:52.854Z,13.98
2022-09-28T23:44:07.811Z,14.01
2022-09-28T23:47:09.527Z,14.07
2022-09-28T23:50:24.816Z,14.01
2022-09-28T23:53:46.823Z,14.03
2022-09-28T23:56:54.844Z,14.06
